createdAt,value
2017-08-29T00:00:43.386Z,0
2017-08-29T00:01:52.820Z,0
2017-08-29T00:03:01.666Z,0
2017-08-29T00:04:10.511Z,0
2017-08-29T00:05:19.358Z,0
2017-08-29T00:06:28.542Z,0
2017-08-29T00:07:37.387Z,0
2017-08-29T00:08:46.231Z,0
2017-08-29T00:09:55.075Z,0
2017-08-29T00:11:03.920Z,0
2017-08-29T00:12:12.766Z,0
2017-08-29T00:13:21.659Z,0
2017-08-29T00:14:30.504Z,0
2017-08-29T00:15:39.354Z,0
2017-08-29T00:16:48.200Z,0
2017-08-29T00:17:57.380Z,0
2017-08-29T00:19:06.222Z,0
2017-08-29T00:20:15.066Z,0
2017-08-29T00:21:23.911Z,0
2017-08-29T00:22:32.760Z,0
2017-08-29T00:23:41.606Z,0
2017-08-29T00:24:50.552Z,0
2017-08-29T00:25:59.420Z,0
2017-08-29T00:27:08.247Z,0
2017-08-29T00:28:17.090Z,0
2017-08-29T00:29:25.934Z,0
2017-08-29T00:30:34.928Z,0
2017-08-29T00:31:43.773Z,0
2017-08-29T00:32:52.620Z,0
2017-08-29T00:34:01.464Z,0
2017-08-29T00:35:10.314Z,0
2017-08-29T00:36:19.163Z,0
2017-08-29T00:37:28.339Z,0
2017-08-29T00:38:37.184Z,0
2017-08-29T00:39:46.032Z,0
2017-08-29T00:40:54.871Z,0
2017-08-29T00:42:03.766Z,0
2017-08-29T00:43:12.614Z,0
2017-08-29T00:44:21.463Z,0
2017-08-29T00:45:30.639Z,0
2017-08-29T00:46:39.481Z,0
2017-08-29T00:47:48.328Z,0
2017-08-29T00:48:57.173Z,0
2017-08-29T00:50:06.018Z,0
2017-08-29T00:51:14.861Z,0
2017-08-29T00:52:23.709Z,0
2017-08-29T00:53:32.700Z,0
2017-08-29T00:54:41.544Z,0
2017-08-29T00:55:50.397Z,0
2017-08-29T00:56:59.242Z,0
2017-08-29T00:58:08.757Z,0
2017-08-29T00:59:17.934Z,0
2017-08-29T01:00:26.780Z,0
2017-08-29T01:01:35.626Z,0
2017-08-29T01:02:44.470Z,0
2017-08-29T01:03:53.317Z,0
2017-08-29T01:05:02.313Z,0
2017-08-29T01:06:11.156Z,0
2017-08-29T01:07:20.002Z,0
2017-08-29T01:08:28.848Z,0
2017-08-29T01:09:37.695Z,0
2017-08-29T01:10:46.690Z,0
2017-08-29T01:11:55.536Z,0
2017-08-29T01:13:04.386Z,0
2017-08-29T01:14:13.232Z,0
2017-08-29T01:15:22.076Z,0
2017-08-29T01:16:31.069Z,0
2017-08-29T01:17:39.914Z,0
2017-08-29T01:18:48.759Z,0
2017-08-29T01:19:57.603Z,0
2017-08-29T01:21:06.548Z,0
2017-08-29T01:22:15.543Z,0
2017-08-29T01:23:24.387Z,0
2017-08-29T01:24:33.233Z,0
2017-08-29T01:25:42.081Z,0
2017-08-29T01:26:50.925Z,0
2017-08-29T01:27:59.873Z,0
2017-08-29T01:29:09.055Z,0
2017-08-29T01:30:17.899Z,0
2017-08-29T01:31:26.743Z,0
2017-08-29T01:32:35.589Z,0
2017-08-29T01:33:44.482Z,0
2017-08-29T01:34:53.327Z,0
2017-08-29T01:36:02.170Z,0
2017-08-29T01:37:11.014Z,0
2017-08-29T01:38:19.860Z,0
2017-08-29T01:39:28.707Z,0
2017-08-29T01:40:37.551Z,0
2017-08-29T01:41:46.398Z,0
2017-08-29T01:42:55.243Z,0
2017-08-29T01:44:04.086Z,0
2017-08-29T01:45:13.130Z,0
2017-08-29T01:46:21.975Z,0
2017-08-29T01:47:30.820Z,0
2017-08-29T01:48:39.665Z,0
2017-08-29T01:49:48.841Z,0
2017-08-29T01:50:57.735Z,0
2017-08-29T01:52:06.579Z,0
2017-08-29T01:53:15.425Z,0
2017-08-29T01:54:24.269Z,0
2017-08-29T01:55:33.112Z,0
2017-08-29T01:56:42.009Z,0
2017-08-29T01:57:50.854Z,0
2017-08-29T01:58:59.700Z,0
2017-08-29T02:00:08.548Z,0
2017-08-29T02:01:17.392Z,0
2017-08-29T02:02:26.438Z,0
2017-08-29T02:03:35.615Z,0
2017-08-29T02:04:44.794Z,0
2017-08-29T02:05:53.637Z,0
2017-08-29T02:07:02.481Z,0
2017-08-29T02:08:11.374Z,0
2017-08-29T02:09:20.220Z,0
2017-08-29T02:10:29.066Z,0
2017-08-29T02:11:37.913Z,0
2017-08-29T02:12:46.758Z,0
2017-08-29T02:13:55.602Z,0
2017-08-29T02:15:04.445Z,0
2017-08-29T02:16:13.289Z,0
2017-08-29T02:17:22.465Z,0
2017-08-29T02:18:31.312Z,0
2017-08-29T02:19:40.305Z,0
2017-08-29T02:20:49.150Z,0
2017-08-29T02:21:57.996Z,0
2017-08-29T02:23:06.844Z,0
2017-08-29T02:24:15.688Z,0
2017-08-29T02:25:24.633Z,0
2017-08-29T02:26:33.478Z,0
2017-08-29T02:27:42.321Z,0
2017-08-29T02:28:51.164Z,0
2017-08-29T02:30:00.008Z,0
2017-08-29T02:31:09.006Z,0
2017-08-29T02:32:17.856Z,0
2017-08-29T02:33:26.701Z,0
2017-08-29T02:34:35.549Z,0
2017-08-29T02:35:44.399Z,0
2017-08-29T02:36:53.628Z,0
2017-08-29T02:38:02.474Z,0
2017-08-29T02:39:11.320Z,0
2017-08-29T02:40:20.503Z,0
2017-08-29T02:41:29.342Z,0
2017-08-29T02:42:38.586Z,0
2017-08-29T02:43:47.432Z,0
2017-08-29T02:44:56.609Z,0
2017-08-29T02:46:05.456Z,0
2017-08-29T02:47:14.304Z,0
2017-08-29T02:48:23.352Z,0
2017-08-29T02:49:32.198Z,0
2017-08-29T02:50:41.044Z,0
2017-08-29T02:51:49.890Z,0
2017-08-29T02:52:58.734Z,0
2017-08-29T02:54:07.582Z,0
2017-08-29T02:55:16.433Z,0
2017-08-29T02:56:25.274Z,0
2017-08-29T02:57:34.116Z,0
2017-08-29T02:58:42.961Z,0
2017-08-29T02:59:51.957Z,0
2017-08-29T03:01:00.801Z,0
2017-08-29T03:02:09.647Z,0
2017-08-29T03:03:18.491Z,0
2017-08-29T03:04:27.352Z,0
2017-08-29T03:05:36.484Z,0
2017-08-29T03:06:45.327Z,0
2017-08-29T03:07:54.172Z,0
2017-08-29T03:09:03.023Z,0
2017-08-29T03:10:11.864Z,0
2017-08-29T03:11:20.860Z,0
2017-08-29T03:12:29.705Z,0
2017-08-29T03:13:38.883Z,0
2017-08-29T03:14:47.727Z,0
2017-08-29T03:15:56.570Z,0
2017-08-29T03:17:05.568Z,0
2017-08-29T03:18:14.743Z,0
2017-08-29T03:19:23.588Z,0
2017-08-29T03:20:32.432Z,0
2017-08-29T03:21:41.277Z,0
2017-08-29T03:22:50.120Z,0
2017-08-29T03:23:58.965Z,0
2017-08-29T03:25:07.809Z,0
2017-08-29T03:26:16.654Z,0
2017-08-29T03:27:25.498Z,0
2017-08-29T03:28:34.393Z,0
2017-08-29T03:29:43.239Z,0
2017-08-29T03:30:52.086Z,0
2017-08-29T03:32:00.928Z,0
2017-08-29T03:33:09.774Z,0
2017-08-29T03:34:18.721Z,0
2017-08-29T03:35:27.567Z,0
2017-08-29T03:36:36.411Z,0
2017-08-29T03:37:45.255Z,0
2017-08-29T03:38:54.099Z,0
2017-08-29T03:40:03.144Z,0
2017-08-29T03:41:11.990Z,0
2017-08-29T03:42:20.834Z,0
2017-08-29T03:43:29.680Z,0
2017-08-29T03:44:38.527Z,0
2017-08-29T03:45:47.470Z,0
2017-08-29T03:46:56.314Z,0
2017-08-29T03:48:05.159Z,0
2017-08-29T03:49:14.342Z,0
2017-08-29T03:50:23.519Z,0
2017-08-29T03:51:32.514Z,0
2017-08-29T03:52:41.360Z,0
2017-08-29T03:53:50.204Z,0
2017-08-29T03:54:59.049Z,0
2017-08-29T03:56:07.892Z,0
2017-08-29T03:57:16.888Z,0
2017-08-29T03:58:25.782Z,0
2017-08-29T03:59:34.624Z,0
2017-08-29T04:00:43.467Z,4
2017-08-29T04:01:52.312Z,4
2017-08-29T04:03:01.157Z,0
2017-08-29T04:04:10.009Z,4
2017-08-29T04:05:18.852Z,4
2017-08-29T04:06:27.694Z,4
2017-08-29T04:07:36.540Z,4
2017-08-29T04:08:45.483Z,8
2017-08-29T04:09:54.328Z,8
2017-08-29T04:11:03.173Z,8
2017-08-29T04:12:12.018Z,12
2017-08-29T04:13:20.864Z,12
2017-08-29T04:14:30.012Z,12
2017-08-29T04:15:38.858Z,20
2017-08-29T04:16:47.702Z,20
2017-08-29T04:17:56.545Z,24
2017-08-29T04:19:05.720Z,28
2017-08-29T04:20:14.716Z,32
2017-08-29T04:21:23.561Z,40
2017-08-29T04:22:32.404Z,44
2017-08-29T04:23:41.248Z,52
2017-08-29T04:24:50.090Z,56
2017-08-29T04:25:58.936Z,64
2017-08-29T04:27:07.781Z,72
2017-08-29T04:28:16.628Z,80
2017-08-29T04:29:25.472Z,88
2017-08-29T04:30:34.317Z,100
2017-08-29T04:31:43.313Z,108
2017-08-29T04:32:52.157Z,120
2017-08-29T04:34:01.005Z,128
2017-08-29T04:35:09.847Z,140
2017-08-29T04:36:18.690Z,152
2017-08-29T04:37:27.686Z,160
2017-08-29T04:38:36.530Z,176
2017-08-29T04:39:45.378Z,188
2017-08-29T04:40:54.221Z,200
2017-08-29T04:42:03.066Z,212
2017-08-29T04:43:11.961Z,228
2017-08-29T04:44:20.806Z,240
2017-08-29T04:45:29.650Z,252
2017-08-29T04:46:38.494Z,268
2017-08-29T04:47:47.339Z,280
2017-08-29T04:48:56.183Z,296
2017-08-29T04:50:05.358Z,308
2017-08-29T04:51:14.201Z,324
2017-08-29T04:52:23.044Z,336
2017-08-29T04:53:31.887Z,352
2017-08-29T04:54:40.883Z,364
2017-08-29T04:55:49.730Z,376
2017-08-29T04:56:58.574Z,392
2017-08-29T04:58:08.086Z,408
2017-08-29T04:59:16.932Z,424
2017-08-29T05:00:25.929Z,436
2017-08-29T05:01:34.775Z,448
2017-08-29T05:02:43.623Z,464
2017-08-29T05:03:52.470Z,476
2017-08-29T05:05:01.658Z,488
2017-08-29T05:06:10.654Z,504
2017-08-29T05:07:19.502Z,520
2017-08-29T05:08:28.345Z,532
2017-08-29T05:09:37.194Z,540
2017-08-29T05:10:46.052Z,556
2017-08-29T05:11:55.045Z,568
2017-08-29T05:13:03.892Z,584
2017-08-29T05:14:12.741Z,596
2017-08-29T05:15:21.591Z,608
2017-08-29T05:16:30.433Z,620
2017-08-29T05:17:39.329Z,632
2017-08-29T05:18:48.175Z,648
2017-08-29T05:19:57.018Z,660
2017-08-29T05:21:05.862Z,672
2017-08-29T05:22:15.108Z,684
2017-08-29T05:23:23.952Z,692
2017-08-29T05:24:32.798Z,704
2017-08-29T05:25:41.641Z,716
2017-08-29T05:26:50.488Z,728
2017-08-29T05:27:59.336Z,740
2017-08-29T05:29:08.184Z,748
2017-08-29T05:30:17.241Z,760
2017-08-29T05:31:26.084Z,772
2017-08-29T05:32:34.928Z,780
2017-08-29T05:33:43.776Z,792
2017-08-29T05:34:52.625Z,800
2017-08-29T05:36:01.475Z,816
2017-08-29T05:37:10.323Z,828
2017-08-29T05:38:19.173Z,836
2017-08-29T05:39:28.018Z,848
2017-08-29T05:40:36.872Z,856
2017-08-29T05:41:45.709Z,860
2017-08-29T05:42:54.556Z,868
2017-08-29T05:44:03.737Z,880
2017-08-29T05:45:12.589Z,884
2017-08-29T05:46:21.435Z,888
2017-08-29T05:47:30.286Z,900
2017-08-29T05:48:39.129Z,908
2017-08-29T05:49:47.973Z,916
2017-08-29T05:50:56.818Z,924
2017-08-29T05:52:05.665Z,932
2017-08-29T05:53:14.846Z,936
2017-08-29T05:54:23.991Z,944
2017-08-29T05:55:32.836Z,956
2017-08-29T05:56:41.682Z,964
2017-08-29T05:57:50.526Z,972
2017-08-29T05:58:59.372Z,980
2017-08-29T06:00:08.376Z,984
2017-08-29T06:01:17.214Z,992
2017-08-29T06:02:26.060Z,1004
2017-08-29T06:03:34.905Z,1016
2017-08-29T06:04:43.754Z,1024
2017-08-29T06:05:52.754Z,1028
2017-08-29T06:07:01.595Z,1036
2017-08-29T06:08:10.445Z,1040
2017-08-29T06:09:19.287Z,1044
2017-08-29T06:10:28.134Z,1048
2017-08-29T06:11:37.362Z,1052
2017-08-29T06:12:46.209Z,1056
2017-08-29T06:13:55.054Z,1064
2017-08-29T06:15:03.902Z,1064
2017-08-29T06:16:12.751Z,1072
2017-08-29T06:17:21.758Z,1076
2017-08-29T06:18:30.597Z,1080
2017-08-29T06:19:39.443Z,1084
2017-08-29T06:20:48.290Z,1088
2017-08-29T06:21:57.139Z,1096
2017-08-29T06:23:06.136Z,1100
2017-08-29T06:24:14.983Z,1104
2017-08-29T06:25:23.830Z,1108
2017-08-29T06:26:32.678Z,1120
2017-08-29T06:27:41.524Z,1132
2017-08-29T06:28:50.472Z,1144
2017-08-29T06:29:59.319Z,1160
2017-08-29T06:31:08.167Z,1168
2017-08-29T06:32:17.015Z,1176
2017-08-29T06:33:25.912Z,1180
2017-08-29T06:34:34.909Z,1184
2017-08-29T06:35:43.754Z,1188
2017-08-29T06:36:52.602Z,1192
2017-08-29T06:38:01.452Z,1196
2017-08-29T06:39:10.634Z,1204
2017-08-29T06:40:19.631Z,1212
2017-08-29T06:41:28.481Z,1216
2017-08-29T06:42:37.329Z,1220
2017-08-29T06:43:46.178Z,1232
2017-08-29T06:44:55.030Z,1240
2017-08-29T06:46:04.212Z,1248
2017-08-29T06:47:13.061Z,1256
2017-08-29T06:48:21.912Z,1264
2017-08-29T06:49:30.770Z,1272
2017-08-29T06:50:39.616Z,1276
2017-08-29T06:51:48.514Z,1280
2017-08-29T06:52:57.363Z,1288
2017-08-29T06:54:06.212Z,1292
2017-08-29T06:55:15.058Z,1300
2017-08-29T06:56:23.914Z,1304
2017-08-29T06:57:33.145Z,1308
2017-08-29T06:58:42.335Z,1308
2017-08-29T06:59:51.205Z,1308
2017-08-29T07:01:00.034Z,1308
2017-08-29T07:02:08.882Z,1316
2017-08-29T07:03:17.781Z,1316
2017-08-29T07:04:26.637Z,1316
2017-08-29T07:05:35.485Z,1316
2017-08-29T07:06:44.338Z,1324
2017-08-29T07:07:53.184Z,1320
2017-08-29T07:09:02.033Z,1324
2017-08-29T07:10:10.885Z,1328
2017-08-29T07:11:19.741Z,1324
2017-08-29T07:12:28.588Z,1324
2017-08-29T07:13:37.436Z,1328
2017-08-29T07:14:46.751Z,1324
2017-08-29T07:15:55.597Z,1332
2017-08-29T07:17:04.447Z,1336
2017-08-29T07:18:13.297Z,1344
2017-08-29T07:19:22.145Z,1352
2017-08-29T07:20:31.254Z,1364
2017-08-29T07:21:40.451Z,1376
2017-08-29T07:22:49.298Z,1384
2017-08-29T07:23:58.147Z,1384
2017-08-29T07:25:07.005Z,1384
2017-08-29T07:26:16.010Z,1396
2017-08-29T07:27:24.863Z,1400
2017-08-29T07:28:34.040Z,1420
2017-08-29T07:29:42.888Z,1444
2017-08-29T07:30:51.738Z,1452
2017-08-29T07:32:01.077Z,1460
2017-08-29T07:33:09.927Z,1472
2017-08-29T07:34:18.776Z,1476
2017-08-29T07:35:27.628Z,1484
2017-08-29T07:36:36.480Z,1484
2017-08-29T07:37:45.434Z,1492
2017-08-29T07:38:54.285Z,1500
2017-08-29T07:40:03.138Z,1512
2017-08-29T07:41:11.989Z,1516
2017-08-29T07:42:20.869Z,1524
2017-08-29T07:43:29.874Z,1532
2017-08-29T07:44:38.725Z,1536
2017-08-29T07:45:47.574Z,1544
2017-08-29T07:46:56.432Z,1560
2017-08-29T07:48:05.284Z,1568
2017-08-29T07:49:14.246Z,1564
2017-08-29T07:50:23.108Z,1564
2017-08-29T07:51:31.962Z,1564
2017-08-29T07:52:40.813Z,1560
2017-08-29T07:53:49.664Z,1556
2017-08-29T07:54:58.775Z,1560
2017-08-29T07:56:07.636Z,1568
2017-08-29T07:57:16.482Z,1576
2017-08-29T07:58:25.333Z,1584
2017-08-29T07:59:34.184Z,1584
2017-08-29T08:00:43.204Z,1572
2017-08-29T08:01:52.070Z,1560
2017-08-29T08:03:00.922Z,1552
2017-08-29T08:04:09.773Z,1544
2017-08-29T08:05:18.632Z,1548
2017-08-29T08:06:27.631Z,1552
2017-08-29T08:07:36.814Z,1556
2017-08-29T08:08:45.662Z,1564
2017-08-29T08:09:54.512Z,1568
2017-08-29T08:11:03.383Z,1568
2017-08-29T08:12:12.383Z,1564
2017-08-29T08:13:21.234Z,1556
2017-08-29T08:14:30.084Z,1548
2017-08-29T08:15:38.935Z,1548
2017-08-29T08:16:47.785Z,1552
2017-08-29T08:17:56.891Z,1560
2017-08-29T08:19:05.740Z,1572
2017-08-29T08:20:14.595Z,1592
2017-08-29T08:21:23.457Z,1604
2017-08-29T08:22:32.304Z,1604
2017-08-29T08:23:41.457Z,1608
2017-08-29T08:24:50.309Z,1612
2017-08-29T08:25:59.161Z,1616
2017-08-29T08:27:08.013Z,1624
2017-08-29T08:28:16.864Z,1640
2017-08-29T08:29:25.882Z,1656
2017-08-29T08:30:34.733Z,1672
2017-08-29T08:31:43.588Z,1688
2017-08-29T08:32:52.440Z,1704
2017-08-29T08:34:01.297Z,1716
2017-08-29T08:35:10.449Z,1736
2017-08-29T08:36:19.319Z,1748
2017-08-29T08:37:28.488Z,1752
2017-08-29T08:38:37.341Z,1760
2017-08-29T08:39:46.200Z,1760
2017-08-29T08:40:55.438Z,1760
2017-08-29T08:42:04.313Z,1772
2017-08-29T08:43:13.174Z,1788
2017-08-29T08:44:22.022Z,1796
2017-08-29T08:45:30.879Z,1820
2017-08-29T08:46:40.059Z,1828
2017-08-29T08:47:48.915Z,1836
2017-08-29T08:48:57.864Z,1856
2017-08-29T08:50:07.066Z,1868
2017-08-29T08:51:15.917Z,1896
2017-08-29T08:52:24.918Z,1928
2017-08-29T08:53:33.786Z,1940
2017-08-29T08:54:42.637Z,1936
2017-08-29T08:55:51.491Z,1952
2017-08-29T08:57:00.342Z,1980
2017-08-29T08:58:09.271Z,1988
2017-08-29T08:59:18.158Z,1992
2017-08-29T09:00:27.041Z,2032
2017-08-29T09:01:35.941Z,2068
2017-08-29T09:02:44.940Z,2084
2017-08-29T09:03:54.102Z,2104
2017-08-29T09:05:02.982Z,2116
2017-08-29T09:06:11.869Z,2112
2017-08-29T09:07:20.792Z,2120
2017-08-29T09:08:29.644Z,2152
2017-08-29T09:09:38.602Z,2184
2017-08-29T09:10:47.459Z,2212
2017-08-29T09:11:56.309Z,2244
2017-08-29T09:13:05.160Z,2268
2017-08-29T09:14:14.012Z,2268
2017-08-29T09:15:23.225Z,2280
2017-08-29T09:16:32.086Z,2336
2017-08-29T09:17:40.961Z,2384
2017-08-29T09:18:49.815Z,2428
2017-08-29T09:19:58.666Z,2460
2017-08-29T09:21:07.641Z,2488
2017-08-29T09:22:16.533Z,2508
2017-08-29T09:23:25.389Z,2532
2017-08-29T09:24:34.243Z,2576
2017-08-29T09:25:43.094Z,2596
2017-08-29T09:26:51.953Z,2612
2017-08-29T09:28:00.856Z,2636
2017-08-29T09:29:09.711Z,2676
2017-08-29T09:30:18.606Z,2700
2017-08-29T09:31:27.473Z,2740
2017-08-29T09:32:36.490Z,2788
2017-08-29T09:33:45.405Z,2808
2017-08-29T09:34:54.267Z,2836
2017-08-29T09:36:03.131Z,2840
2017-08-29T09:37:12.027Z,2844
2017-08-29T09:38:21.046Z,2868
2017-08-29T09:39:29.913Z,2912
2017-08-29T09:40:38.767Z,2972
2017-08-29T09:41:47.628Z,2996
2017-08-29T09:42:56.488Z,3040
2017-08-29T09:44:05.635Z,3068
2017-08-29T09:45:14.544Z,3064
2017-08-29T09:46:23.736Z,3092
2017-08-29T09:47:32.590Z,3152
2017-08-29T09:48:41.445Z,3164
2017-08-29T09:49:50.315Z,3172
2017-08-29T09:50:59.181Z,3196
2017-08-29T09:52:08.036Z,3176
2017-08-29T09:53:16.912Z,3172
2017-08-29T09:54:25.872Z,3172
2017-08-29T09:55:34.998Z,3144
2017-08-29T09:56:43.875Z,3132
2017-08-29T09:57:52.745Z,3148
2017-08-29T09:59:01.604Z,3112
2017-08-29T10:00:10.456Z,3080
2017-08-29T10:01:19.542Z,3016
2017-08-29T10:02:28.733Z,2972
2017-08-29T10:03:37.586Z,2980
2017-08-29T10:04:46.444Z,3012
2017-08-29T10:05:55.300Z,3044
2017-08-29T10:07:04.203Z,3068
2017-08-29T10:08:13.059Z,3108
2017-08-29T10:09:21.913Z,3144
2017-08-29T10:10:30.772Z,3156
2017-08-29T10:11:39.624Z,3132
2017-08-29T10:12:48.475Z,3116
2017-08-29T10:13:57.328Z,3136
2017-08-29T10:15:06.181Z,3128
2017-08-29T10:16:15.063Z,3120
2017-08-29T10:17:23.927Z,3136
2017-08-29T10:18:33.299Z,3160
2017-08-29T10:19:42.151Z,3188
2017-08-29T10:20:51.007Z,3188
2017-08-29T10:21:59.858Z,3188
2017-08-29T10:23:08.721Z,3176
2017-08-29T10:24:17.827Z,3180
2017-08-29T10:25:26.682Z,3168
2017-08-29T10:26:35.539Z,3164
2017-08-29T10:27:44.393Z,3176
2017-08-29T10:28:53.250Z,3236
2017-08-29T10:30:02.153Z,3228
2017-08-29T10:31:11.013Z,3256
2017-08-29T10:32:19.866Z,3368
2017-08-29T10:33:28.717Z,3512
2017-08-29T10:34:37.585Z,3692
2017-08-29T10:35:46.588Z,3804
2017-08-29T10:36:55.481Z,3860
2017-08-29T10:38:04.337Z,3928
2017-08-29T10:39:13.189Z,4008
2017-08-29T10:40:22.044Z,4084
2017-08-29T10:41:31.008Z,4200
2017-08-29T10:42:39.867Z,4216
2017-08-29T10:43:48.722Z,4272
2017-08-29T10:44:57.577Z,4360
2017-08-29T10:46:06.434Z,4400
2017-08-29T10:47:15.562Z,4464
2017-08-29T10:48:24.422Z,4520
2017-08-29T10:49:33.281Z,4592
2017-08-29T10:50:42.157Z,4648
2017-08-29T10:51:51.386Z,4704
2017-08-29T10:53:00.449Z,4724
2017-08-29T10:54:09.635Z,4744
2017-08-29T10:55:18.553Z,4808
2017-08-29T10:56:27.593Z,4848
2017-08-29T10:57:37.833Z,4876
2017-08-29T10:58:46.867Z,4852
2017-08-29T10:59:55.907Z,4700
2017-08-29T11:01:05.083Z,4800
2017-08-29T11:02:15.172Z,4920
2017-08-29T11:03:24.031Z,4808
2017-08-29T11:04:33.243Z,4744
2017-08-29T11:05:42.100Z,4852
2017-08-29T11:06:50.954Z,4936
2017-08-29T11:08:00.175Z,4964
2017-08-29T11:09:09.295Z,4948
2017-08-29T11:10:18.696Z,5028
2017-08-29T11:11:27.582Z,5204
2017-08-29T11:12:36.979Z,5424
2017-08-29T11:13:46.171Z,5664
2017-08-29T11:14:55.224Z,5796
2017-08-29T11:16:04.365Z,5648
2017-08-29T11:17:13.681Z,5520
2017-08-29T11:18:22.670Z,5548
2017-08-29T11:19:31.892Z,5532
2017-08-29T11:20:41.382Z,5616
2017-08-29T11:21:51.078Z,5584
2017-08-29T11:23:00.295Z,5556
2017-08-29T11:24:09.844Z,5532
2017-08-29T11:25:19.257Z,5696
2017-08-29T11:26:28.135Z,5612
2017-08-29T11:27:37.368Z,5484
2017-08-29T11:28:46.780Z,5452
2017-08-29T11:29:55.967Z,5472
2017-08-29T11:31:05.196Z,5496
2017-08-29T11:32:14.301Z,5636
2017-08-29T11:33:23.800Z,5784
2017-08-29T11:34:33.250Z,5900
2017-08-29T11:35:42.655Z,6032
2017-08-29T11:36:51.544Z,6320
2017-08-29T11:38:01.242Z,7156
2017-08-29T11:39:10.349Z,7684
2017-08-29T11:40:19.206Z,7704
2017-08-29T11:41:28.059Z,7176
2017-08-29T11:42:36.916Z,6536
2017-08-29T11:43:45.772Z,6472
2017-08-29T11:44:54.626Z,6596
2017-08-29T11:46:03.480Z,6660
2017-08-29T11:47:12.336Z,6992
2017-08-29T11:48:21.198Z,7252
2017-08-29T11:49:30.053Z,7436
2017-08-29T11:50:39.209Z,7508
2017-08-29T11:51:48.070Z,7744
2017-08-29T11:52:56.928Z,7684
2017-08-29T11:54:05.784Z,7516
2017-08-29T11:55:14.638Z,7148
2017-08-29T11:56:23.592Z,7048
2017-08-29T11:57:32.451Z,9148
2017-08-29T11:58:41.307Z,22560
2017-08-29T11:59:50.163Z,21632
2017-08-29T12:00:59.023Z,18784
2017-08-29T12:02:07.942Z,15992
2017-08-29T12:03:16.812Z,14788
2017-08-29T12:04:26.144Z,17216
2017-08-29T12:05:35.013Z,22432
2017-08-29T12:06:43.879Z,32864
2017-08-29T12:07:52.838Z,34368
2017-08-29T12:09:01.695Z,21088
2017-08-29T12:10:10.627Z,14384
2017-08-29T12:11:19.490Z,26240
2017-08-29T12:12:28.346Z,39840
2017-08-29T12:13:37.545Z,34784
2017-08-29T12:14:46.406Z,41728
2017-08-29T12:15:55.269Z,47392
2017-08-29T12:17:04.125Z,36160
2017-08-29T12:18:12.986Z,28320
2017-08-29T12:19:22.145Z,19232
2017-08-29T12:20:31.009Z,11896
2017-08-29T12:21:39.872Z,10604
2017-08-29T12:22:48.736Z,11032
2017-08-29T12:23:57.597Z,15156
2017-08-29T12:25:06.768Z,28416
2017-08-29T12:26:15.626Z,19616
2017-08-29T12:27:24.488Z,13292
2017-08-29T12:28:33.348Z,15356
2017-08-29T12:29:42.212Z,18432
2017-08-29T12:30:51.097Z,34880
2017-08-29T12:31:59.959Z,35744
2017-08-29T12:33:08.831Z,11960
2017-08-29T12:34:17.694Z,20544
2017-08-29T12:35:26.721Z,18368
2017-08-29T12:36:37.494Z,13904
2017-08-29T12:37:46.356Z,13308
2017-08-29T12:38:55.213Z,12244
2017-08-29T12:40:04.080Z,11440
2017-08-29T12:41:12.945Z,11464
2017-08-29T12:42:21.960Z,12696
2017-08-29T12:43:30.825Z,13804
2017-08-29T12:44:39.688Z,13004
2017-08-29T12:45:48.548Z,12156
2017-08-29T12:46:57.413Z,19104
2017-08-29T12:48:06.434Z,21376
2017-08-29T12:49:15.376Z,27424
2017-08-29T12:50:24.244Z,23520
2017-08-29T12:51:33.183Z,15444
2017-08-29T12:52:42.081Z,9736
2017-08-29T12:54:21.028Z,9288
2017-08-29T12:55:29.936Z,9996
2017-08-29T12:56:39.233Z,10080
2017-08-29T12:57:48.110Z,18848
2017-08-29T12:58:57.210Z,27904
2017-08-29T13:00:06.069Z,18016
2017-08-29T13:01:14.933Z,11972
2017-08-29T13:02:23.862Z,11708
2017-08-29T13:03:32.727Z,10700
2017-08-29T13:04:41.788Z,11164
2017-08-29T13:05:50.647Z,10972
2017-08-29T13:06:59.520Z,11008
2017-08-29T13:08:08.395Z,9864
2017-08-29T13:09:17.253Z,9744
2017-08-29T13:10:26.169Z,10964
2017-08-29T13:11:35.027Z,10856
2017-08-29T13:12:43.948Z,11000
2017-08-29T13:13:52.810Z,10924
2017-08-29T13:15:01.676Z,10976
2017-08-29T13:16:10.685Z,9628
2017-08-29T13:17:19.649Z,9012
2017-08-29T13:18:28.587Z,8400
2017-08-29T13:19:37.817Z,10636
2017-08-29T13:20:47.050Z,11740
2017-08-29T13:21:55.976Z,29728
2017-08-29T13:23:04.847Z,21312
2017-08-29T13:24:13.712Z,13032
2017-08-29T13:25:22.577Z,13064
2017-08-29T13:26:31.440Z,13128
2017-08-29T13:27:40.546Z,12944
2017-08-29T13:28:49.403Z,12456
2017-08-29T13:29:58.263Z,11852
2017-08-29T13:31:07.124Z,12076
2017-08-29T13:32:15.986Z,13444
2017-08-29T13:33:24.952Z,12968
2017-08-29T13:34:33.818Z,16268
2017-08-29T13:35:42.712Z,18880
2017-08-29T13:36:51.572Z,13152
2017-08-29T13:38:00.437Z,11048
2017-08-29T13:39:09.356Z,15348
2017-08-29T13:40:18.216Z,24224
2017-08-29T13:41:27.078Z,21376
2017-08-29T13:42:35.939Z,17856
2017-08-29T13:43:44.799Z,15128
2017-08-29T13:44:53.908Z,17984
2017-08-29T13:46:02.770Z,32160
2017-08-29T13:47:11.629Z,31648
2017-08-29T13:48:20.487Z,17728
2017-08-29T13:49:29.352Z,19008
2017-08-29T13:50:38.603Z,22528
2017-08-29T13:51:47.463Z,14684
2017-08-29T13:52:56.327Z,14952
2017-08-29T13:54:05.521Z,16896
2017-08-29T13:55:14.385Z,19488
2017-08-29T13:56:23.551Z,18944
2017-08-29T13:57:32.416Z,18976
2017-08-29T13:58:41.612Z,27648
2017-08-29T13:59:50.474Z,41696
2017-08-29T14:00:59.341Z,47616
2017-08-29T14:02:08.408Z,49024
2017-08-29T14:03:17.270Z,47104
2017-08-29T14:04:26.131Z,41568
2017-08-29T14:05:34.998Z,39584
2017-08-29T14:06:43.870Z,40096
2017-08-29T14:07:52.785Z,40672
2017-08-29T14:09:01.687Z,42592
2017-08-29T14:10:10.581Z,43520
2017-08-29T14:11:19.657Z,45696
2017-08-29T14:12:28.524Z,35776
2017-08-29T14:13:37.392Z,34592
2017-08-29T14:14:46.260Z,38624
2017-08-29T14:15:55.127Z,38144
2017-08-29T14:17:03.992Z,42496
2017-08-29T14:18:12.857Z,32704
2017-08-29T14:19:21.879Z,37952
2017-08-29T14:20:30.978Z,40640
2017-08-29T14:21:39.880Z,41920
2017-08-29T14:22:48.782Z,42016
2017-08-29T14:23:57.653Z,42048
2017-08-29T14:25:06.522Z,43616
2017-08-29T14:26:15.389Z,45376
2017-08-29T14:27:24.307Z,40000
2017-08-29T14:28:33.307Z,36640
2017-08-29T14:29:42.210Z,36128
2017-08-29T14:30:51.094Z,37280
2017-08-29T14:31:59.962Z,37120
2017-08-29T14:33:08.831Z,36544
2017-08-29T14:34:17.699Z,37728
2017-08-29T14:35:26.568Z,39936
2017-08-29T14:36:35.434Z,39776
2017-08-29T14:37:44.305Z,38560
2017-08-29T14:38:53.177Z,39520
2017-08-29T14:40:02.348Z,37664
2017-08-29T14:41:11.217Z,36736
2017-08-29T14:42:20.087Z,34784
2017-08-29T14:43:28.957Z,37856
2017-08-29T14:44:37.835Z,38240
2017-08-29T14:45:46.972Z,35552
2017-08-29T14:46:55.843Z,37280
2017-08-29T14:48:04.718Z,41120
2017-08-29T14:49:13.586Z,41312
2017-08-29T14:50:22.757Z,39136
2017-08-29T14:51:31.626Z,40416
2017-08-29T14:52:40.497Z,42080
2017-08-29T14:53:49.367Z,40000
2017-08-29T14:54:58.239Z,37792
2017-08-29T14:56:07.119Z,35936
2017-08-29T14:57:15.992Z,36768
2017-08-29T14:58:25.201Z,34112
2017-08-29T14:59:34.071Z,31392
2017-08-29T15:00:42.941Z,29856
2017-08-29T15:01:51.811Z,28512
2017-08-29T15:03:00.681Z,9872
2017-08-29T15:04:09.560Z,25952
2017-08-29T15:05:18.442Z,16864
2017-08-29T15:06:27.316Z,29056
2017-08-29T15:07:36.199Z,29056
2017-08-29T15:08:45.065Z,19776
2017-08-29T15:09:53.934Z,30368
2017-08-29T15:11:02.802Z,31200
2017-08-29T15:12:11.669Z,28128
2017-08-29T15:13:20.616Z,25984
2017-08-29T15:14:29.489Z,26496
2017-08-29T15:15:38.707Z,28864
2017-08-29T15:16:47.605Z,23424
2017-08-29T15:17:56.489Z,26016
2017-08-29T15:19:05.384Z,30208
2017-08-29T15:20:14.306Z,30528
2017-08-29T15:21:23.276Z,30688
2017-08-29T15:22:32.161Z,31200
2017-08-29T15:23:41.031Z,31456
2017-08-29T15:24:49.904Z,29792
2017-08-29T15:25:58.814Z,27072
2017-08-29T15:27:07.911Z,24864
2017-08-29T15:28:16.844Z,26784
2017-08-29T15:29:25.715Z,27520
2017-08-29T15:30:34.604Z,28640
2017-08-29T15:31:43.475Z,31296
2017-08-29T15:32:52.697Z,30720
2017-08-29T15:34:01.564Z,29920
2017-08-29T15:35:10.511Z,31456
2017-08-29T15:36:19.409Z,30848
2017-08-29T15:37:28.313Z,28704
2017-08-29T15:38:37.337Z,28992
2017-08-29T15:39:46.213Z,11500